sensor_id;sensor_type;location;lat;lon;timestamp;temperature;humidity
909;DHT22;441;51.192;6.788;2022-10-22T08:50:18;20.90;99.90
909;DHT22;441;51.192;6.788;2022-10-22T08:52:49;20.90;99.90
909;DHT22;441;51.192;6.788;2022-10-22T08:55:24;20.90;99.90
909;DHT22;441;51.192;6.788;2022-10-22T08:57:56;21.00;99.90
909;DHT22;441;51.192;6.788;2022-10-22T09:00:30;21.00;99.90
909;DHT22;441;51.192;6.788;2022-10-22T09:03:11;21.10;99.90
909;DHT22;441;51.192;6.788;2022-10-22T09:05:55;21.20;99.90
909;DHT22;441;51.192;6.788;2022-10-22T09:08:27;21.20;99.90
909;DHT22;441;51.192;6.788;2022-10-22T09:11:00;21.20;99.90
909;DHT22;441;51.192;6.788;2022-10-22T09:13:28;21.20;99.90
909;DHT22;441;51.192;6.788;2022-10-22T09:15:58;21.20;99.90
909;DHT22;441;51.192;6.788;2022-10-22T09:18:34;21.20;99.90
909;DHT22;441;51.192;6.788;2022-10-22T09:21:11;21.20;99.90
909;DHT22;441;51.192;6.788;2022-10-22T09:23:52;21.20;99.90
909;DHT22;441;51.192;6.788;2022-10-22T09:26:21;21.20;99.90
909;DHT22;441;51.192;6.788;2022-10-22T09:28:50;21.30;99.90
909;DHT22;441;51.192;6.788;2022-10-22T09:31:17;21.30;99.90
909;DHT22;441;51.192;6.788;2022-10-22T09:33:45;21.30;99.90
909;DHT22;441;51.192;6.788;2022-10-22T09:36:16;21.30;99.90
909;DHT22;441;51.192;6.788;2022-10-22T09:38:45;21.30;99.90
909;DHT22;441;51.192;6.788;2022-10-22T09:41:14;21.30;99.90
909;DHT22;441;51.192;6.788;2022-10-22T09:43:41;21.30;99.90
909;DHT22;441;51.192;6.788;2022-10-22T09:46:15;21.40;99.90
909;DHT22;441;51.192;6.788;2022-10-22T09:48:46;21.40;99.90
909;DHT22;441;51.192;6.788;2022-10-22T09:51:19;21.40;99.90
909;DHT22;441;51.192;6.788;2022-10-22T09:53:47;21.40;99.90
909;DHT22;441;51.192;6.788;2022-10-22T09:56:25;21.40;99.90
909;DHT22;441;51.192;6.788;2022-10-22T09:58:54;21.40;99.90
909;DHT22;441;51.192;6.788;2022-10-22T10:01:23;21.40;99.90
909;DHT22;441;51.192;6.788;2022-10-22T10:03:50;21.40;99.90
909;DHT22;441;51.192;6.788;2022-10-22T10:06:20;21.40;99.90
909;DHT22;441;51.192;6.788;2022-10-22T10:08:48;21.40;99.90
909;DHT22;441;51.192;6.788;2022-10-22T10:11:22;21.40;99.90
909;DHT22;441;51.192;6.788;2022-10-22T10:13:59;21.40;99.90
909;DHT22;441;51.192;6.788;2022-10-22T10:16:42;21.40;99.90
909;DHT22;441;51.192;6.788;2022-10-22T10:19:40;21.40;99.90
909;DHT22;441;51.192;6.788;2022-10-22T10:22:24;21.40;99.90
909;DHT22;441;51.192;6.788;2022-10-22T10:27:49;21.40;99.90
909;DHT22;441;51.192;6.788;2022-10-22T10:30:19;21.40;99.90
909;DHT22;441;51.192;6.788;2022-10-22T10:33:04;21.40;99.90
909;DHT22;441;51.192;6.788;2022-10-22T10:35:41;21.40;99.90
909;DHT22;441;51.192;6.788;2022-10-22T10:38:41;21.40;99.90
909;DHT22;441;51.192;6.788;2022-10-22T10:41:22;21.40;99.90
909;DHT22;441;51.192;6.788;2022-10-22T10:44:11;21.40;99.90
909;DHT22;441;51.192;6.788;2022-10-22T10:46:48;21.40;99.90
909;DHT22;441;51.192;6.788;2022-10-22T10:49:19;21.40;99.90
909;DHT22;441;51.192;6.788;2022-10-22T10:51:53;21.40;99.90
909;DHT22;441;51.192;6.788;2022-10-22T10:54:37;21.40;99.90
909;DHT22;441;51.192;6.788;2022-10-22T10:57:12;21.40;99.90
909;DHT22;441;51.192;6.788;2022-10-22T10:59:53;21.50;99.90
909;DHT22;441;51.192;6.788;2022-10-22T11:02:38;21.50;99.90
909;DHT22;441;51.192;6.788;2022-10-22T11:05:24;21.50;99.90
909;DHT22;441;51.192;6.788;2022-10-22T11:07:56;21.50;99.90
909;DHT22;441;51.192;6.788;2022-10-22T11:10:32;21.50;99.90
909;DHT22;441;51.192;6.788;2022-10-22T11:13:10;21.50;99.90
909;DHT22;441;51.192;6.788;2022-10-22T11:15:40;21.50;99.90
909;DHT22;441;51.192;6.788;2022-10-22T11:18:16;21.50;99.90
909;DHT22;441;51.192;6.788;2022-10-22T11:21:01;21.50;99.90
909;DHT22;441;51.192;6.788;2022-10-22T11:23:33;21.50;99.90
909;DHT22;441;51.192;6.788;2022-10-22T11:26:05;21.50;99.90
909;DHT22;441;51.192;6.788;2022-10-22T11:28:42;21.50;99.90
909;DHT22;441;51.192;6.788;2022-10-22T11:31:14;21.50;99.90
909;DHT22;441;51.192;6.788;2022-10-22T11:33:47;21.50;99.90
909;DHT22;441;51.192;6.788;2022-10-22T11:36:21;21.50;99.90
909;DHT22;441;51.192;6.788;2022-10-22T11:38:50;21.50;99.90
909;DHT22;441;51.192;6.788;2022-10-22T11:41:23;21.50;99.90
909;DHT22;441;51.192;6.788;2022-10-22T11:44:08;21.50;99.90
909;DHT22;441;51.192;6.788;2022-10-22T11:46:54;21.50;99.90
909;DHT22;441;51.192;6.788;2022-10-22T11:49:25;21.50;99.90
909;DHT22;441;51.192;6.788;2022-10-22T11:52:12;21.50;99.90
909;DHT22;441;51.192;6.788;2022-10-22T11:54:47;21.50;99.90
909;DHT22;441;51.192;6.788;2022-10-22T11:57:26;21.50;99.90
909;DHT22;441;51.192;6.788;2022-10-22T11:59:57;21.50;99.90
909;DHT22;441;51.192;6.788;2022-10-22T12:02:40;21.50;99.90
909;DHT22;441;51.192;6.788;2022-10-22T12:05:33;21.50;99.90
909;DHT22;441;51.192;6.788;2022-10-22T12:08:34;21.50;99.90
909;DHT22;441;51.192;6.788;2022-10-22T12:11:14;21.50;99.90
909;DHT22;441;51.192;6.788;2022-10-22T12:14:06;21.50;99.90
909;DHT22;441;51.192;6.788;2022-10-22T12:16:42;21.50;99.90
909;DHT22;441;51.192;6.788;2022-10-22T12:19:13;21.40;99.90
909;DHT22;441;51.192;6.788;2022-10-22T12:21:43;21.50;99.90
909;DHT22;441;51.192;6.788;2022-10-22T12:24:13;21.50;99.90
909;DHT22;441;51.192;6.788;2022-10-22T12:26:41;21.50;99.90
909;DHT22;441;51.192;6.788;2022-10-22T12:29:14;21.50;99.90
909;DHT22;441;51.192;6.788;2022-10-22T12:31:42;21.50;99.90
909;DHT22;441;51.192;6.788;2022-10-22T12:34:13;21.50;99.90
909;DHT22;441;51.192;6.788;2022-10-22T12:36:40;21.50;99.90
909;DHT22;441;51.192;6.788;2022-10-22T12:39:13;21.50;99.90
909;DHT22;441;51.192;6.788;2022-10-22T12:41:41;21.50;99.90
909;DHT22;441;51.192;6.788;2022-10-22T12:44:12;21.50;99.90
909;DHT22;441;51.192;6.788;2022-10-22T12:46:41;21.50;99.90
909;DHT22;441;51.192;6.788;2022-10-22T12:49:14;21.50;99.90
909;DHT22;441;51.192;6.788;2022-10-22T12:51:43;21.50;99.90
909;DHT22;441;51.192;6.788;2022-10-22T12:54:18;21.50;99.90
909;DHT22;441;51.192;6.788;2022-10-22T12:56:47;21.50;99.90
909;DHT22;441;51.192;6.788;2022-10-22T12:59:20;21.50;99.90
909;DHT22;441;51.192;6.788;2022-10-22T13:01:48;21.50;99.90
909;DHT22;441;51.192;6.788;2022-10-22T13:04:30;21.50;99.90
909;DHT22;441;51.192;6.788;2022-10-22T13:07:12;21.50;99.90
909;DHT22;441;51.192;6.788;2022-10-22T13:09:42;21.60;99.90
909;DHT22;441;51.192;6.788;2022-10-22T13:12:10;21.50;99.90
909;DHT22;441;51.192;6.788;2022-10-22T13:14:43;21.60;99.90
909;DHT22;441;51.192;6.788;2022-10-22T13:17:13;21.50;99.90
909;DHT22;441;51.192;6.788;2022-10-22T13:19:44;21.60;99.90
909;DHT22;441;51.192;6.788;2022-10-22T13:22:30;21.60;99.90
909;DHT22;441;51.192;6.788;2022-10-22T13:25:01;21.60;99.90
909;DHT22;441;51.192;6.788;2022-10-22T13:27:29;21.60;99.90
909;DHT22;441;51.192;6.788;2022-10-22T13:30:02;21.60;99.90
909;DHT22;441;51.192;6.788;2022-10-22T13:32:35;21.60;99.90
909;DHT22;441;51.192;6.788;2022-10-22T13:35:03;21.60;99.90
909;DHT22;441;51.192;6.788;2022-10-22T13:37:31;21.60;99.90
909;DHT22;441;51.192;6.788;2022-10-22T13:40:00;21.60;99.90
909;DHT22;441;51.192;6.788;2022-10-22T13:42:27;21.60;99.90
909;DHT22;441;51.192;6.788;2022-10-22T13:44:54;21.60;99.90
909;DHT22;441;51.192;6.788;2022-10-22T13:47:27;21.60;99.90
909;DHT22;441;51.192;6.788;2022-10-22T13:49:57;21.60;99.90
909;DHT22;441;51.192;6.788;2022-10-22T13:52:28;21.70;99.90
909;DHT22;441;51.192;6.788;2022-10-22T13:54:57;21.60;99.90
909;DHT22;441;51.192;6.788;2022-10-22T13:57:24;21.70;99.90
909;DHT22;441;51.192;6.788;2022-10-22T13:59:51;21.70;99.90
909;DHT22;441;51.192;6.788;2022-10-22T14:02:18;21.70;99.90
909;DHT22;441;51.192;6.788;2022-10-22T14:04:50;21.70;99.90
909;DHT22;441;51.192;6.788;2022-10-22T14:07:18;21.70;99.90
909;DHT22;441;51.192;6.788;2022-10-22T14:09:45;21.70;99.90
909;DHT22;441;51.192;6.788;2022-10-22T14:12:13;21.70;99.90
909;DHT22;441;51.192;6.788;2022-10-22T14:14:40;21.70;99.90
909;DHT22;441;51.192;6.788;2022-10-22T14:17:12;21.70;99.90
909;DHT22;441;51.192;6.788;2022-10-22T14:19:42;21.70;99.90
909;DHT22;441;51.192;6.788;2022-10-22T14:22:14;21.70;99.90
909;DHT22;441;51.192;6.788;2022-10-22T14:24:41;21.70;99.90
909;DHT22;441;51.192;6.788;2022-10-22T14:27:12;21.70;99.90
909;DHT22;441;51.192;6.788;2022-10-22T14:29:40;21.70;99.90
909;DHT22;441;51.192;6.788;2022-10-22T14:32:12;21.80;99.90
909;DHT22;441;51.192;6.788;2022-10-22T14:34:39;21.80;99.90
909;DHT22;441;51.192;6.788;2022-10-22T14:37:15;21.80;99.90
909;DHT22;441;51.192;6.788;2022-10-22T14:39:43;21.80;99.90
909;DHT22;441;51.192;6.788;2022-10-22T14:42:11;21.80;99.90
909;DHT22;441;51.192;6.788;2022-10-22T14:44:38;21.80;99.90
909;DHT22;441;51.192;6.788;2022-10-22T14:47:05;21.80;99.90
909;DHT22;441;51.192;6.788;2022-10-22T14:49:32;21.80;99.90
909;DHT22;441;51.192;6.788;2022-10-22T14:51:59;21.80;99.90
909;DHT22;441;51.192;6.788;2022-10-22T14:54:28;21.80;99.90
909;DHT22;441;51.192;6.788;2022-10-22T14:57:00;21.80;99.90
909;DHT22;441;51.192;6.788;2022-10-22T14:59:33;21.80;99.90
909;DHT22;441;51.192;6.788;2022-10-22T15:02:01;21.90;99.90
909;DHT22;441;51.192;6.788;2022-10-22T15:04:27;21.80;99.90
909;DHT22;441;51.192;6.788;2022-10-22T15:06:55;21.90;99.90
909;DHT22;441;51.192;6.788;2022-10-22T15:09:23;21.90;99.90
909;DHT22;441;51.192;6.788;2022-10-22T15:11:51;21.90;99.90
909;DHT22;441;51.192;6.788;2022-10-22T15:14:18;21.80;99.90
909;DHT22;441;51.192;6.788;2022-10-22T15:16:45;21.80;99.90
909;DHT22;441;51.192;6.788;2022-10-22T15:19:12;21.80;99.90
909;DHT22;441;51.192;6.788;2022-10-22T15:21:39;21.90;99.90
909;DHT22;441;51.192;6.788;2022-10-22T15:24:06;21.80;99.90
909;DHT22;441;51.192;6.788;2022-10-22T15:26:33;21.80;99.90
909;DHT22;441;51.192;6.788;2022-10-22T15:29:02;21.90;99.90
909;DHT22;441;51.192;6.788;2022-10-22T15:31:47;21.90;99.90
909;DHT22;441;51.192;6.788;2022-10-22T15:34:18;21.90;99.90
909;DHT22;441;51.192;6.788;2022-10-22T15:36:45;22.00;99.90
909;DHT22;441;51.192;6.788;2022-10-22T15:39:12;22.00;99.90
909;DHT22;441;51.192;6.788;2022-10-22T15:41:39;22.00;99.90
909;DHT22;441;51.192;6.788;2022-10-22T15:44:14;22.00;99.90
909;DHT22;441;51.192;6.788;2022-10-22T15:46:41;22.00;99.90
909;DHT22;441;51.192;6.788;2022-10-22T15:49:08;22.00;99.90
909;DHT22;441;51.192;6.788;2022-10-22T15:51:35;22.10;99.90
909;DHT22;441;51.192;6.788;2022-10-22T15:54:02;22.10;99.90
909;DHT22;441;51.192;6.788;2022-10-22T15:56:30;22.10;99.90
909;DHT22;441;51.192;6.788;2022-10-22T15:58:59;22.10;99.90
909;DHT22;441;51.192;6.788;2022-10-22T16:01:28;22.10;99.90
909;DHT22;441;51.192;6.788;2022-10-22T16:03:56;22.10;99.90
909;DHT22;441;51.192;6.788;2022-10-22T16:06:28;22.10;99.90
909;DHT22;441;51.192;6.788;2022-10-22T16:08:57;22.10;99.90
909;DHT22;441;51.192;6.788;2022-10-22T16:11:26;22.10;99.90
909;DHT22;441;51.192;6.788;2022-10-22T16:13:54;22.10;99.90
909;DHT22;441;51.192;6.788;2022-10-22T16:16:21;22.00;99.90
909;DHT22;441;51.192;6.788;2022-10-22T16:18:50;22.00;99.90
909;DHT22;441;51.192;6.788;2022-10-22T16:21:18;22.00;99.90
909;DHT22;441;51.192;6.788;2022-10-22T16:23:45;22.00;99.90
909;DHT22;441;51.192;6.788;2022-10-22T16:26:12;22.00;99.90
909;DHT22;441;51.192;6.788;2022-10-22T16:28:40;22.00;99.90
909;DHT22;441;51.192;6.788;2022-10-22T16:31:09;22.00;99.90
909;DHT22;441;51.192;6.788;2022-10-22T16:33:37;22.00;99.90
909;DHT22;441;51.192;6.788;2022-10-22T16:36:06;22.00;99.90
909;DHT22;441;51.192;6.788;2022-10-22T16:38:34;22.00;99.90
909;DHT22;441;51.192;6.788;2022-10-22T16:41:08;22.00;99.90
909;DHT22;441;51.192;6.788;2022-10-22T16:43:35;22.00;99.90
909;DHT22;441;51.192;6.788;2022-10-22T16:46:02;22.10;99.90
909;DHT22;441;51.192;6.788;2022-10-22T16:48:30;22.10;99.90
909;DHT22;441;51.192;6.788;2022-10-22T16:50:58;22.10;99.90
909;DHT22;441;51.192;6.788;2022-10-22T16:53:26;22.10;99.90
909;DHT22;441;51.192;6.788;2022-10-22T16:55:53;22.10;99.90
909;DHT22;441;51.192;6.788;2022-10-22T16:58:20;22.10;99.90
909;DHT22;441;51.192;6.788;2022-10-22T17:00:47;22.10;99.90
909;DHT22;441;51.192;6.788;2022-10-22T17:03:14;22.10;99.90
909;DHT22;441;51.192;6.788;2022-10-22T17:05:41;22.10;99.90
909;DHT22;441;51.192;6.788;2022-10-22T17:08:08;22.20;99.90
909;DHT22;441;51.192;6.788;2022-10-22T17:10:37;22.20;99.90
909;DHT22;441;51.192;6.788;2022-10-22T17:13:06;22.20;99.90
909;DHT22;441;51.192;6.788;2022-10-22T17:15:33;22.20;99.90
909;DHT22;441;51.192;6.788;2022-10-22T17:18:01;22.20;99.90
909;DHT22;441;51.192;6.788;2022-10-22T17:20:28;22.20;99.90
909;DHT22;441;51.192;6.788;2022-10-22T17:22:55;22.20;99.90
909;DHT22;441;51.192;6.788;2022-10-22T17:25:24;22.30;99.90
909;DHT22;441;51.192;6.788;2022-10-22T17:27:59;22.20;99.90
909;DHT22;441;51.192;6.788;2022-10-22T17:30:26;22.20;99.90
909;DHT22;441;51.192;6.788;2022-10-22T17:32:54;22.20;99.90
909;DHT22;441;51.192;6.788;2022-10-22T17:35:21;22.20;99.90
909;DHT22;441;51.192;6.788;2022-10-22T17:37:49;22.30;99.90
909;DHT22;441;51.192;6.788;2022-10-22T17:40:15;22.20;99.90
909;DHT22;441;51.192;6.788;2022-10-22T17:42:42;22.20;99.90
909;DHT22;441;51.192;6.788;2022-10-22T17:45:11;22.30;99.90
909;DHT22;441;51.192;6.788;2022-10-22T17:47:38;22.30;99.90
909;DHT22;441;51.192;6.788;2022-10-22T17:50:06;22.30;99.90
909;DHT22;441;51.192;6.788;2022-10-22T17:52:34;22.20;99.90
909;DHT22;441;51.192;6.788;2022-10-22T17:55:02;22.20;99.90
909;DHT22;441;51.192;6.788;2022-10-22T17:57:29;22.20;99.90
909;DHT22;441;51.192;6.788;2022-10-22T17:59:57;22.10;99.90
909;DHT22;441;51.192;6.788;2022-10-22T18:02:25;22.10;99.90
909;DHT22;441;51.192;6.788;2022-10-22T18:04:52;22.10;99.90
909;DHT22;441;51.192;6.788;2022-10-22T18:07:19;22.10;99.90
909;DHT22;441;51.192;6.788;2022-10-22T18:09:46;22.10;99.90
909;DHT22;441;51.192;6.788;2022-10-22T18:12:13;22.10;99.90
909;DHT22;441;51.192;6.788;2022-10-22T18:14:42;22.10;99.90
909;DHT22;441;51.192;6.788;2022-10-22T18:17:10;22.00;99.90
909;DHT22;441;51.192;6.788;2022-10-22T18:19:39;22.00;99.90
909;DHT22;441;51.192;6.788;2022-10-22T18:22:06;22.00;99.90
909;DHT22;441;51.192;6.788;2022-10-22T18:24:34;22.00;99.90
909;DHT22;441;51.192;6.788;2022-10-22T18:27:01;22.00;99.90
909;DHT22;441;51.192;6.788;2022-10-22T18:29:29;22.00;99.90
909;DHT22;441;51.192;6.788;2022-10-22T18:31:56;22.00;99.90
909;DHT22;441;51.192;6.788;2022-10-22T18:34:23;22.00;99.90
909;DHT22;441;51.192;6.788;2022-10-22T18:36:51;22.00;99.90
909;DHT22;441;51.192;6.788;2022-10-22T18:39:18;22.00;99.90
909;DHT22;441;51.192;6.788;2022-10-22T18:41:45;22.00;99.90
909;DHT22;441;51.192;6.788;2022-10-22T18:44:13;22.00;99.90
909;DHT22;441;51.192;6.788;2022-10-22T18:46:41;22.00;99.90
909;DHT22;441;51.192;6.788;2022-10-22T18:49:11;22.00;99.90
909;DHT22;441;51.192;6.788;2022-10-22T18:51:39;22.00;99.90
909;DHT22;441;51.192;6.788;2022-10-22T18:54:08;22.00;99.90
909;DHT22;441;51.192;6.788;2022-10-22T18:56:36;21.90;99.90
909;DHT22;441;51.192;6.788;2022-10-22T18:59:04;21.90;99.90
909;DHT22;441;51.192;6.788;2022-10-22T19:01:30;21.90;99.90
909;DHT22;441;51.192;6.788;2022-10-22T19:03:59;21.90;99.90
909;DHT22;441;51.192;6.788;2022-10-22T19:06:28;21.90;99.90
909;DHT22;441;51.192;6.788;2022-10-22T19:08:56;21.90;99.90
909;DHT22;441;51.192;6.788;2022-10-22T19:11:25;21.90;99.90
909;DHT22;441;51.192;6.788;2022-10-22T19:13:52;21.90;99.90
909;DHT22;441;51.192;6.788;2022-10-22T19:16:21;21.90;99.90
909;DHT22;441;51.192;6.788;2022-10-22T19:18:50;21.90;99.90
909;DHT22;441;51.192;6.788;2022-10-22T19:21:17;21.90;99.90
909;DHT22;441;51.192;6.788;2022-10-22T19:23:44;21.90;99.90
909;DHT22;441;51.192;6.788;2022-10-22T19:26:14;21.90;99.90
909;DHT22;441;51.192;6.788;2022-10-22T19:28:43;21.90;99.90
909;DHT22;441;51.192;6.788;2022-10-22T19:31:12;21.90;99.90
909;DHT22;441;51.192;6.788;2022-10-22T19:33:39;21.90;99.90
909;DHT22;441;51.192;6.788;2022-10-22T19:36:07;21.90;99.90
909;DHT22;441;51.192;6.788;2022-10-22T19:38:37;21.90;99.90
909;DHT22;441;51.192;6.788;2022-10-22T19:41:06;21.90;99.90
909;DHT22;441;51.192;6.788;2022-10-22T19:43:33;21.90;99.90
909;DHT22;441;51.192;6.788;2022-10-22T19:46:03;21.90;99.90
909;DHT22;441;51.192;6.788;2022-10-22T19:48:30;21.90;99.90
909;DHT22;441;51.192;6.788;2022-10-22T19:50:58;21.90;99.90
909;DHT22;441;51.192;6.788;2022-10-22T19:53:27;22.00;99.90
909;DHT22;441;51.192;6.788;2022-10-22T19:55:55;22.00;99.90
909;DHT22;441;51.192;6.788;2022-10-22T19:58:22;22.00;99.90
909;DHT22;441;51.192;6.788;2022-10-22T20:00:49;22.00;99.90
909;DHT22;441;51.192;6.788;2022-10-22T20:03:18;22.00;99.90
909;DHT22;441;51.192;6.788;2022-10-22T20:05:46;22.00;99.90
909;DHT22;441;51.192;6.788;2022-10-22T20:08:13;22.00;99.90
909;DHT22;441;51.192;6.788;2022-10-22T20:10:40;22.00;99.90
909;DHT22;441;51.192;6.788;2022-10-22T20:13:10;22.00;99.90
909;DHT22;441;51.192;6.788;2022-10-22T20:15:37;22.00;99.90
909;DHT22;441;51.192;6.788;2022-10-22T20:18:04;22.00;99.90
909;DHT22;441;51.192;6.788;2022-10-22T20:20:32;22.00;99.90
909;DHT22;441;51.192;6.788;2022-10-22T20:23:02;22.00;99.90
909;DHT22;441;51.192;6.788;2022-10-22T20:25:29;22.00;99.90
